Terminal Aerodrome Forecast
Issued by NWS

Home | Current Version | Previous Version | Text Only | Print | Product List | Glossary Off
Versions: 1 2 3 4 5 6 7 8 9 10 11 12 13 14 15

000
FTUS41 KCLE 012335
TAFFDY
TAF
KFDY 012335Z 0200/0224 23014KT P6SM OVC025
      TEMPO 0200/0203 SCT025 OVC050
     FM021800 27014G22KT P6SM SCT025 OVC035=

USA.gov is the U.S. government's official web portal to all federal, state and local government web resources and services.